Time;durP1;ratioP1;P1;durP2;ratioP2;P2;SDS_P1;SDS_P2;PMS_P1;PMS_P2;Temp;Humidity;BMP_temperature;BMP_pressure;BME280_temperature;BME280_humidity;BME280_pressure;Samples;Min_cycle;Max_cycle;Signal;HPM_P1;HPM_P2
2022/07/09 00:00:40;;;;;;;7.43;3.45;;;19.00;99.90;;;;;;5054390;28;20114;-77
2022/07/09 00:03:06;;;;;;;8.13;4.80;;;18.90;99.90;;;;;;5054348;28;20353;-77
2022/07/09 00:05:31;;;;;;;11.57;3.80;;;18.90;99.90;;;;;;5053941;28;20025;-77
2022/07/09 00:07:57;;;;;;;9.68;4.00;;;18.90;99.90;;;;;;5053250;28;20072;-78
2022/07/09 00:10:23;;;;;;;10.23;3.70;;;18.80;99.90;;;;;;5054363;28;20091;-79
2022/07/09 00:12:49;;;;;;;7.85;3.67;;;18.80;99.90;;;;;;5052895;28;20032;-79
2022/07/09 00:15:15;;;;;;;11.13;4.00;;;18.80;99.90;;;;;;5054262;28;20052;-79
2022/07/09 00:17:40;;;;;;;6.95;3.83;;;18.80;99.90;;;;;;5054374;28;20044;-78
2022/07/09 00:20:07;;;;;;;9.85;3.90;;;18.70;99.90;;;;;;5054069;28;20114;-77
2022/07/09 00:22:33;;;;;;;8.30;4.10;;;18.80;99.90;;;;;;5053910;28;20017;-78
2022/07/09 00:24:59;;;;;;;10.23;4.13;;;18.70;99.90;;;;;;5054184;28;20025;-78
2022/07/09 00:27:25;;;;;;;9.23;4.53;;;18.70;99.90;;;;;;5053766;28;20106;-78
2022/07/09 00:29:51;;;;;;;4.70;3.45;;;18.70;99.90;;;;;;5053202;28;20028;-79
2022/07/09 00:32:18;;;;;;;6.85;3.53;;;18.60;99.90;;;;;;5054109;28;20422;-77
2022/07/09 00:34:44;;;;;;;5.78;3.95;;;18.60;99.90;;;;;;5054514;28;20021;-77
2022/07/09 00:37:11;;;;;;;5.82;3.95;;;18.60;99.90;;;;;;5054471;28;20452;-77
2022/07/09 00:39:37;;;;;;;5.30;3.80;;;18.60;99.90;;;;;;5054602;28;20028;-77
2022/07/09 00:42:05;;;;;;;4.63;3.45;;;18.60;99.90;;;;;;5070029;28;20068;-78
2022/07/09 00:44:30;;;;;;;6.00;3.50;;;18.70;99.90;;;;;;5054134;28;20064;-78
2022/07/09 00:46:57;;;;;;;5.68;3.33;;;18.70;99.90;;;;;;5069507;28;20060;-78
2022/07/09 00:49:24;;;;;;;5.88;4.00;;;18.60;99.90;;;;;;5054477;28;20036;-78
2022/07/09 00:51:50;;;;;;;10.68;4.28;;;18.60;99.90;;;;;;5054070;28;20036;-78
2022/07/09 00:54:16;;;;;;;11.35;3.72;;;18.60;99.90;;;;;;5053980;28;20021;-78
2022/07/09 00:56:43;;;;;;;4.32;3.17;;;18.60;99.90;;;;;;5054672;28;20427;-78
2022/07/09 00:59:12;;;;;;;10.20;3.40;;;18.60;99.90;;;;;;5054042;28;20021;-78
2022/07/09 01:01:39;;;;;;;6.55;3.05;;;18.60;99.90;;;;;;5053718;28;20520;-78
2022/07/09 01:04:06;;;;;;;5.25;3.30;;;18.70;99.90;;;;;;5053985;28;20518;-77
2022/07/09 01:06:33;;;;;;;5.15;3.42;;;18.70;99.90;;;;;;5054023;28;20090;-77
2022/07/09 01:08:59;;;;;;;6.28;3.30;;;18.60;99.90;;;;;;5053137;28;20029;-77
2022/07/09 01:11:25;;;;;;;10.95;3.88;;;18.70;99.90;;;;;;5054118;28;20356;-78
2022/07/09 01:13:51;;;;;;;4.57;3.03;;;18.70;99.90;;;;;;5053965;28;20024;-78
2022/07/09 01:16:17;;;;;;;6.25;3.67;;;18.80;99.90;;;;;;5053951;28;20021;-78
2022/07/09 01:18:46;;;;;;;9.40;3.13;;;18.80;99.90;;;;;;5053846;28;20025;-78
2022/07/09 01:21:13;;;;;;;4.40;2.75;;;18.80;99.90;;;;;;5053631;28;20104;-78
2022/07/09 01:23:39;;;;;;;4.40;2.28;;;18.80;99.90;;;;;;5053625;28;20116;-79
2022/07/09 01:26:06;;;;;;;6.05;2.03;;;18.90;99.90;;;;;;5053770;28;20073;-79
2022/07/09 01:28:32;;;;;;;3.80;1.88;;;19.00;99.90;;;;;;5068205;28;20049;-78
2022/07/09 01:30:58;;;;;;;5.50;2.47;;;19.10;99.90;;;;;;5053715;28;20395;-77
2022/07/09 01:33:24;;;;;;;7.00;2.90;;;19.10;99.90;;;;;;5052487;28;20033;-79
2022/07/09 01:35:50;;;;;;;4.45;2.70;;;19.00;99.90;;;;;;5053734;28;20021;-77
2022/07/09 01:38:15;;;;;;;4.20;3.20;;;19.00;99.90;;;;;;5053398;28;20033;-78
2022/07/09 01:40:41;;;;;;;7.88;3.55;;;19.00;99.90;;;;;;5053728;28;20021;-78
2022/07/09 01:43:07;;;;;;;9.13;4.60;;;18.90;99.90;;;;;;5052009;28;20056;-78
2022/07/09 01:45:33;;;;;;;5.32;3.20;;;18.90;99.90;;;;;;5053389;28;20020;-78
2022/07/09 01:47:59;;;;;;;6.43;2.80;;;18.90;99.90;;;;;;5053422;28;20521;-78
2022/07/09 01:50:24;;;;;;;6.05;3.10;;;18.90;99.90;;;;;;5052866;28;20112;-77
2022/07/09 01:52:50;;;;;;;7.07;2.80;;;18.90;99.90;;;;;;5053710;28;20036;-78
2022/07/09 01:55:16;;;;;;;6.35;2.20;;;18.90;99.90;;;;;;5051815;28;20025;-79
2022/07/09 01:57:42;;;;;;;3.55;2.50;;;18.90;99.90;;;;;;5053068;28;20029;-78
2022/07/09 02:00:08;;;;;;;4.78;2.13;;;18.90;99.90;;;;;;5052756;28;20029;-79
2022/07/09 02:02:34;;;;;;;3.42;1.88;;;18.90;99.90;;;;;;5052458;28;20021;-79
2022/07/09 02:05:00;;;;;;;3.90;2.65;;;18.90;99.90;;;;;;5051328;28;20036;-79
2022/07/09 02:07:26;;;;;;;6.95;2.65;;;18.90;99.90;;;;;;5053468;28;20025;-80
2022/07/09 02:09:52;;;;;;;4.38;2.38;;;18.80;99.90;;;;;;5052643;28;20452;-80
2022/07/09 02:12:18;;;;;;;6.55;3.45;;;18.60;99.90;;;;;;5053103;28;20479;-80
2022/07/09 02:14:44;;;;;;;7.53;3.90;;;18.50;99.90;;;;;;5053606;28;20033;-80
2022/07/09 02:17:10;;;;;;;9.43;4.15;;;18.30;99.90;;;;;;5052736;28;20886;-80
2022/07/09 02:19:36;;;;;;;7.78;3.92;;;18.30;99.90;;;;;;5053471;28;20108;-80
2022/07/09 02:22:02;;;;;;;9.55;4.35;;;18.20;99.90;;;;;;5053402;28;20108;-79
2022/07/09 02:24:28;;;;;;;8.85;4.20;;;18.20;99.90;;;;;;5051719;28;20060;-80
2022/07/09 02:26:54;;;;;;;7.72;3.85;;;18.10;99.90;;;;;;5052750;28;20407;-81
2022/07/09 02:29:20;;;;;;;6.85;4.57;;;18.10;99.90;;;;;;5053244;28;20416;-81
2022/07/09 02:31:46;;;;;;;12.05;4.70;;;18.00;99.90;;;;;;5052858;28;20029;-81
2022/07/09 02:34:11;;;;;;;8.63;4.40;;;17.90;99.90;;;;;;5051792;28;20052;-80
2022/07/09 02:36:37;;;;;;;7.47;4.95;;;17.90;99.90;;;;;;5052953;28;20107;-81
2022/07/09 02:39:03;;;;;;;11.10;6.45;;;17.80;99.90;;;;;;5052810;28;20021;-80
2022/07/09 02:41:29;;;;;;;10.43;5.43;;;17.70;99.90;;;;;;5053159;28;20044;-81
2022/07/09 02:43:55;;;;;;;7.13;4.97;;;17.70;99.90;;;;;;5052721;28;20032;-80
2022/07/09 02:46:20;;;;;;;6.93;5.25;;;17.60;99.90;;;;;;5052679;28;20025;-79
2022/07/09 02:48:46;;;;;;;10.70;5.75;;;17.60;99.90;;;;;;5053284;28;20025;-81
2022/07/09 02:51:12;;;;;;;6.68;4.85;;;17.50;99.90;;;;;;5051725;28;20037;-80
2022/07/09 02:53:38;;;;;;;9.05;5.68;;;17.50;99.90;;;;;;5068176;28;20029;-79
2022/07/09 02:56:04;;;;;;;7.35;5.35;;;17.50;99.90;;;;;;5053226;28;20025;-80
2022/07/09 02:58:31;;;;;;;8.15;5.00;;;17.50;99.90;;;;;;5052897;28;20513;-80
2022/07/09 03:00:57;;;;;;;7.68;5.20;;;17.50;99.90;;;;;;5052589;28;20029;-80
2022/07/09 03:03:26;;;;;;;9.40;4.95;;;17.40;99.90;;;;;;5052695;28;20174;-80
2022/07/09 03:05:52;;;;;;;8.05;4.68;;;17.40;99.90;;;;;;5052117;28;20411;-80
2022/07/09 03:08:21;;;;;;;8.95;4.85;;;17.50;99.90;;;;;;5071350;28;20021;-80
2022/07/09 03:10:50;;;;;;;13.30;4.88;;;17.40;99.90;;;;;;5056003;28;20380;-79
2022/07/09 03:13:16;;;;;;;14.80;4.82;;;17.40;99.90;;;;;;5056311;28;20105;-80
2022/07/09 03:15:42;;;;;;;8.35;4.78;;;17.40;99.90;;;;;;5055933;28;20473;-80
2022/07/09 03:18:08;;;;;;;10.05;4.60;;;17.40;99.90;;;;;;5056248;28;20029;-80
2022/07/09 03:20:37;;;;;;;6.88;4.53;;;17.40;99.90;;;;;;5055631;28;20039;-79
2022/07/09 03:23:07;;;;;;;10.65;4.28;;;17.40;99.90;;;;;;5071902;28;20029;-79
2022/07/09 03:25:33;;;;;;;5.78;4.00;;;17.40;99.90;;;;;;5056048;28;20104;-80
2022/07/09 03:27:59;;;;;;;4.75;3.55;;;17.40;99.90;;;;;;5055627;28;20095;-80
2022/07/09 03:30:25;;;;;;;6.80;3.92;;;17.50;99.90;;;;;;5056025;28;20033;-80
2022/07/09 03:32:51;;;;;;;4.97;4.00;;;17.50;99.90;;;;;;5055778;28;20025;-80
2022/07/09 03:35:17;;;;;;;10.98;5.38;;;17.50;99.90;;;;;;5055857;28;20039;-81
2022/07/09 03:37:43;;;;;;;9.25;4.78;;;17.50;99.90;;;;;;5056073;28;20108;-81
2022/07/09 03:40:09;;;;;;;11.70;6.78;;;17.40;99.90;;;;;;5066688;28;20112;-82
2022/07/09 03:42:35;;;;;;;13.63;6.15;;;17.30;99.90;;;;;;5075856;28;20524;-81
2022/07/09 03:45:01;;;;;;;11.23;6.55;;;17.20;99.90;;;;;;5075764;28;20100;-83
2022/07/09 03:47:26;;;;;;;13.73;5.80;;;17.20;99.90;;;;;;5075213;28;20036;-82
2022/07/09 03:49:52;;;;;;;8.75;6.25;;;17.00;99.90;;;;;;5073948;28;20093;-81
2022/07/09 03:52:18;;;;;;;9.50;5.80;;;16.90;99.90;;;;;;5075239;28;20041;-81
2022/07/09 03:54:44;;;;;;;12.10;5.43;;;16.90;99.90;;;;;;5074375;28;20028;-80
2022/07/09 03:57:10;;;;;;;11.00;6.30;;;16.80;99.90;;;;;;5075144;28;20020;-82
2022/07/09 03:59:36;;;;;;;10.98;6.10;;;16.80;99.90;;;;;;5075128;28;20052;-81
2022/07/09 04:02:04;;;;;;;10.20;6.18;;;16.70;99.90;;;;;;5073865;28;20060;-81
2022/07/09 04:04:29;;;;;;;9.02;6.43;;;16.70;99.90;;;;;;5075390;28;20016;-80
2022/07/09 04:06:55;;;;;;;14.18;7.80;;;16.60;99.90;;;;;;5073364;28;20039;-79
2022/07/09 04:09:22;;;;;;;16.63;7.43;;;16.60;99.90;;;;;;5074641;28;20367;-81
2022/07/09 04:11:48;;;;;;;10.77;7.00;;;16.50;99.90;;;;;;5075201;28;20035;-81
2022/07/09 04:14:19;;;;;;;13.07;7.38;;;16.50;99.90;;;;;;5075160;28;20032;-80
2022/07/09 04:16:46;;;;;;;11.07;7.10;;;16.40;99.90;;;;;;5074963;28;20506;-80
2022/07/09 04:19:12;;;;;;;12.75;7.18;;;16.40;99.90;;;;;;5074361;28;20467;-80
2022/07/09 04:21:37;;;;;;;11.40;6.57;;;16.40;99.90;;;;;;5074987;28;20031;-81
2022/07/09 04:24:04;;;;;;;18.30;7.72;;;16.30;99.90;;;;;;5074843;28;20024;-81
2022/07/09 04:26:29;;;;;;;13.23;7.97;;;16.30;99.90;;;;;;5074600;28;20381;-80
2022/07/09 04:28:55;;;;;;;12.82;7.50;;;16.40;99.90;;;;;;5075229;28;20052;-81
2022/07/09 04:31:21;;;;;;;10.93;7.65;;;16.30;99.90;;;;;;5074566;28;20094;-81
2022/07/09 04:33:48;;;;;;;12.07;8.25;;;16.40;99.90;;;;;;5073666;28;20025;-81
2022/07/09 04:36:14;;;;;;;17.20;8.18;;;16.30;99.90;;;;;;5074372;28;20056;-82
2022/07/09 04:38:39;;;;;;;12.15;7.22;;;16.40;99.90;;;;;;5074064;28;20061;-83
2022/07/09 04:41:05;;;;;;;15.35;7.28;;;16.40;99.90;;;;;;5074677;28;20421;-83
2022/07/09 04:43:31;;;;;;;10.73;6.82;;;16.50;99.90;;;;;;5073312;28;20032;-82
2022/07/09 04:45:58;;;;;;;9.15;6.40;;;16.50;99.90;;;;;;5073415;28;20036;-81
2022/07/09 04:48:24;;;;;;;12.27;7.35;;;16.50;99.90;;;;;;5074497;28;20103;-83
2022/07/09 04:50:50;;;;;;;12.32;6.38;;;16.50;99.90;;;;;;5073912;28;20116;-79
2022/07/09 04:53:16;;;;;;;11.93;7.38;;;16.60;99.90;;;;;;5074262;28;20035;-81
2022/07/09 04:55:42;;;;;;;10.05;7.50;;;16.50;99.90;;;;;;5074147;28;20028;-82
2022/07/09 04:58:08;;;;;;;10.32;6.97;;;16.50;99.90;;;;;;5074217;28;20023;-81
2022/07/09 05:00:35;;;;;;;14.27;7.93;;;16.50;99.90;;;;;;5074438;28;20073;-82
2022/07/09 05:03:01;;;;;;;15.18;8.15;;;16.50;99.90;;;;;;5073141;28;20025;-83
2022/07/09 05:05:26;;;;;;;12.57;7.57;;;16.50;99.90;;;;;;5072823;28;20073;-83
2022/07/09 05:07:52;;;;;;;18.33;7.40;;;16.50;99.90;;;;;;5074074;28;20478;-84
2022/07/09 05:10:19;;;;;;;11.30;7.20;;;16.50;99.90;;;;;;5072942;28;20037;-83
2022/07/09 05:12:45;;;;;;;11.00;7.88;;;16.50;99.90;;;;;;5073971;28;20035;-83
2022/07/09 05:15:13;;;;;;;12.40;7.93;;;16.60;99.90;;;;;;5072931;28;20534;-83
2022/07/09 05:17:40;;;;;;;18.00;7.88;;;16.50;99.90;;;;;;5072860;28;20036;-83
2022/07/09 05:20:08;;;;;;;13.73;6.93;;;16.50;99.90;;;;;;5073295;28;20082;-82
2022/07/09 05:22:35;;;;;;;15.07;7.90;;;16.50;99.90;;;;;;5073222;28;20033;-80
2022/07/09 05:25:01;;;;;;;13.10;8.52;;;16.60;99.90;;;;;;5073856;28;20540;-83
2022/07/09 05:27:28;;;;;;;15.90;8.05;;;16.50;99.90;;;;;;5072991;28;20041;-83
2022/07/09 05:29:54;;;;;;;13.50;7.10;;;16.60;99.90;;;;;;5072501;28;20013;-83
2022/07/09 05:32:20;;;;;;;9.65;6.30;;;16.60;99.90;;;;;;5073379;28;20402;-82
2022/07/09 05:34:46;;;;;;;12.57;6.82;;;16.60;99.90;;;;;;5073577;28;20036;-82
2022/07/09 05:37:12;;;;;;;10.45;5.82;;;16.60;99.90;;;;;;5073687;28;20104;-84
2022/07/09 05:39:38;;;;;;;7.50;5.78;;;16.70;99.90;;;;;;5072168;28;20021;-83
2022/07/09 05:42:04;;;;;;;11.55;5.85;;;16.70;99.90;;;;;;5070235;28;20375;-81
2022/07/09 05:44:30;;;;;;;12.10;5.95;;;16.80;99.90;;;;;;5071787;28;20029;-82
2022/07/09 05:46:56;;;;;;;7.38;5.22;;;16.90;99.90;;;;;;5070059;28;20105;-81
2022/07/09 05:49:22;;;;;;;15.52;6.00;;;16.90;99.90;;;;;;5072858;28;20524;-81
2022/07/09 05:51:48;;;;;;;19.75;12.95;;;16.90;99.90;;;;;;5072188;28;20054;-82
2022/07/09 05:54:14;;;;;;;29.30;23.55;;;17.10;99.90;;;;;;5072691;28;20383;-82
2022/07/09 05:56:41;;;;;;;19.92;14.77;;;17.20;99.90;;;;;;5073765;28;20348;-81
2022/07/09 05:59:07;;;;;;;33.97;23.77;;;17.20;99.90;;;;;;5072488;28;20117;-82
2022/07/09 06:01:38;;;;;;;32.20;26.55;;;17.30;99.90;;;;;;5072060;28;20036;-81
2022/07/09 06:04:04;;;;;;;12.57;8.47;;;17.30;99.90;;;;;;5073764;28;20025;-81
2022/07/09 06:06:30;;;;;;;11.02;5.63;;;17.30;99.90;;;;;;5073651;28;20257;-80
2022/07/09 06:08:56;;;;;;;12.40;6.25;;;17.30;99.90;;;;;;5073287;28;20029;-81
2022/07/09 06:11:22;;;;;;;11.60;6.22;;;17.30;99.90;;;;;;5072245;28;20040;-80
2022/07/09 06:13:48;;;;;;;8.75;4.80;;;17.30;99.90;;;;;;5072317;28;20078;-80
2022/07/09 06:16:14;;;;;;;10.65;5.35;;;17.20;99.90;;;;;;5071903;28;20032;-80
2022/07/09 06:18:39;;;;;;;12.00;4.93;;;17.20;99.90;;;;;;5073247;28;20086;-80
2022/07/09 06:21:05;;;;;;;8.88;5.28;;;17.20;99.90;;;;;;5073564;28;20029;-81
2022/07/09 06:23:31;;;;;;;13.52;4.93;;;17.30;99.90;;;;;;5072831;28;20085;-81
2022/07/09 06:25:57;;;;;;;7.80;5.60;;;17.30;99.90;;;;;;5073264;28;20107;-80
2022/07/09 06:28:22;;;;;;;9.10;5.68;;;17.30;99.90;;;;;;5073487;28;20482;-80
2022/07/09 06:30:48;;;;;;;10.13;4.97;;;17.30;99.90;;;;;;5073027;28;20028;-80
2022/07/09 06:33:14;;;;;;;6.53;4.70;;;17.30;99.90;;;;;;5073392;28;20378;-81
2022/07/09 06:35:40;;;;;;;8.35;4.63;;;17.30;99.90;;;;;;5073382;28;20021;-82
2022/07/09 06:38:06;;;;;;;10.93;4.95;;;17.30;99.90;;;;;;5073181;28;20056;-82
2022/07/09 06:40:33;;;;;;;5.70;4.32;;;17.30;99.90;;;;;;5073466;28;20471;-81
2022/07/09 06:42:58;;;;;;;7.93;4.38;;;17.20;99.90;;;;;;5076576;28;20520;-80
2022/07/09 06:45:24;;;;;;;5.75;4.03;;;17.30;99.90;;;;;;5076765;28;20021;-82
2022/07/09 06:47:50;;;;;;;9.20;3.83;;;17.30;99.90;;;;;;5076702;28;20130;-81
2022/07/09 06:50:16;;;;;;;4.43;3.08;;;17.30;99.90;;;;;;5076188;28;20073;-81
2022/07/09 06:52:41;;;;;;;6.82;3.90;;;17.30;99.90;;;;;;5076561;28;20048;-81
2022/07/09 06:55:08;;;;;;;9.70;3.55;;;17.30;99.90;;;;;;5075617;28;20025;-81
2022/07/09 06:57:36;;;;;;;7.00;3.88;;;17.40;99.90;;;;;;5076710;28;20129;-87
2022/07/09 07:00:07;;;;;;;5.28;3.70;;;17.40;99.90;;;;;;5075509;28;20048;-78
2022/07/09 07:02:36;;;;;;;12.07;4.35;;;17.40;99.90;;;;;;5076756;28;20024;-82
2022/07/09 07:05:03;;;;;;;7.78;3.47;;;17.50;99.90;;;;;;5074810;28;20048;-82
2022/07/09 07:07:32;;;;;;;8.05;3.65;;;17.50;99.90;;;;;;5076318;28;20391;-87
2022/07/09 07:09:58;;;;;;;9.07;3.40;;;17.60;99.90;;;;;;5076776;28;20021;-82
2022/07/09 07:12:25;;;;;;;4.47;2.83;;;17.70;99.90;;;;;;5075949;28;20089;-82
2022/07/09 07:14:56;;;;;;;10.30;3.70;;;17.70;99.90;;;;;;5076509;28;20020;-80
2022/07/09 07:17:22;;;;;;;8.88;3.30;;;17.80;99.90;;;;;;5076454;28;20455;-81
2022/07/09 07:19:48;;;;;;;6.78;3.20;;;17.80;99.90;;;;;;5076388;28;20032;-81
2022/07/09 07:22:14;;;;;;;6.72;3.67;;;17.80;99.90;;;;;;5076090;28;20378;-80
2022/07/09 07:24:40;;;;;;;6.80;3.70;;;17.80;99.90;;;;;;5076123;28;20103;-81
2022/07/09 07:27:06;;;;;;;9.93;3.00;;;17.80;99.90;;;;;;5075848;28;20367;-81
2022/07/09 07:29:32;;;;;;;4.70;3.03;;;17.80;99.90;;;;;;5076304;28;20036;-81
2022/07/09 07:31:58;;;;;;;5.80;2.67;;;17.90;99.90;;;;;;5075821;28;20113;-78
2022/07/09 07:34:24;;;;;;;5.38;3.20;;;17.90;99.90;;;;;;5076227;28;20020;-79
2022/07/09 07:36:51;;;;;;;8.70;3.88;;;17.90;99.90;;;;;;5075943;28;20379;-81
2022/07/09 07:39:24;;;;;;;9.48;4.18;;;18.00;99.90;;;;;;5074354;28;20025;-80
2022/07/09 07:41:50;;;;;;;7.15;3.10;;;18.00;99.90;;;;;;5076156;28;20025;-79
2022/07/09 07:44:16;;;;;;;6.28;3.70;;;18.10;99.90;;;;;;5074672;28;20036;-80
2022/07/09 07:46:42;;;;;;;6.95;3.40;;;18.20;99.90;;;;;;5075609;28;20024;-80
2022/07/09 07:49:08;;;;;;;5.28;3.30;;;18.30;99.90;;;;;;5075961;28;20409;-80
2022/07/09 07:51:34;;;;;;;9.45;7.68;;;18.50;99.90;;;;;;5074497;28;20032;-80
2022/07/09 07:54:00;;;;;;;5.68;2.92;;;18.60;99.90;;;;;;5074718;28;20079;-80
2022/07/09 07:56:26;;;;;;;8.13;3.05;;;18.80;99.90;;;;;;5074414;28;20033;-80
2022/07/09 07:58:52;;;;;;;9.13;3.05;;;19.00;99.90;;;;;;5075782;28;20024;-80
2022/07/09 08:01:17;;;;;;;5.82;3.03;;;19.10;99.90;;;;;;5075340;28;20032;-79
2022/07/09 08:03:43;;;;;;;5.35;2.33;;;19.20;99.90;;;;;;5075351;28;20425;-78
2022/07/09 08:06:09;;;;;;;5.15;2.88;;;19.10;99.90;;;;;;5075599;28;20047;-79
2022/07/09 08:08:35;;;;;;;6.30;3.13;;;19.10;99.90;;;;;;5075002;28;20079;-80
2022/07/09 08:11:02;;;;;;;6.70;2.85;;;19.10;99.90;;;;;;5075362;28;20029;-80
2022/07/09 08:13:28;;;;;;;6.43;3.00;;;19.10;99.90;;;;;;5075136;28;20069;-79
2022/07/09 08:15:54;;;;;;;8.27;3.40;;;19.10;99.90;;;;;;5075360;28;20479;-79
2022/07/09 08:18:20;;;;;;;5.70;2.72;;;19.20;99.90;;;;;;5075285;28;20056;-79
2022/07/09 08:20:49;;;;;;;6.72;2.95;;;19.30;99.90;;;;;;5074020;28;20064;-80
2022/07/09 08:23:15;;;;;;;4.50;2.72;;;19.40;99.90;;;;;;5075545;28;20025;-80
2022/07/09 08:25:40;;;;;;;5.50;2.72;;;19.50;99.90;;;;;;5075130;28;20024;-79
2022/07/09 08:28:06;;;;;;;9.32;3.03;;;19.70;99.90;;;;;;5074113;28;20060;-80
2022/07/09 08:30:32;;;;;;;4.03;3.00;;;19.80;99.90;;;;;;5074900;28;20381;-78
2022/07/09 08:32:58;;;;;;;5.40;2.92;;;19.90;99.90;;;;;;5074963;28;20024;-80
2022/07/09 08:35:25;;;;;;;7.45;3.03;;;20.10;99.90;;;;;;5073233;28;20028;-81
2022/07/09 08:37:52;;;;;;;6.15;2.80;;;20.20;99.90;;;;;;5074891;28;20482;-78
2022/07/09 08:40:18;;;;;;;6.03;2.70;;;20.30;99.90;;;;;;5074775;28;20074;-80
2022/07/09 08:42:44;;;;;;;7.78;2.90;;;20.40;99.90;;;;;;5074469;28;20025;-79
2022/07/09 08:45:16;;;;;;;6.45;2.60;;;20.40;99.90;;;;;;5074384;28;20055;-79
2022/07/09 08:47:42;;;;;;;;;;;;;;;;;;5075230;28;20029;-80
2022/07/09 08:50:08;;;;;;;7.60;2.63;;;20.50;99.90;;;;;;5073027;28;19908;-81
2022/07/09 08:52:36;;;;;;;5.82;2.83;;;20.40;99.90;;;;;;5074623;28;20112;-81
2022/07/09 08:55:03;;;;;;;9.90;3.15;;;20.40;99.90;;;;;;5073322;28;20451;-80
2022/07/09 08:57:29;;;;;;;5.38;2.55;;;20.40;99.90;;;;;;5074227;28;20021;-79
2022/07/09 08:59:55;;;;;;;7.18;2.50;;;20.30;99.90;;;;;;5074560;28;20020;-80
2022/07/09 09:02:21;;;;;;;12.23;6.10;;;20.30;99.90;;;;;;5074460;28;20143;-80
2022/07/09 09:04:47;;;;;;;4.75;3.33;;;20.30;99.90;;;;;;5072753;28;20390;-80
2022/07/09 09:07:17;;;;;;;6.88;3.13;;;20.20;99.90;;;;;;5074387;28;20052;-80
2022/07/09 09:09:43;;;;;;;6.45;2.90;;;20.20;99.90;;;;;;5074340;28;20020;-79
2022/07/09 09:12:09;;;;;;;5.63;2.88;;;20.20;99.90;;;;;;5072581;28;20437;-81
2022/07/09 09:14:36;;;;;;;3.65;2.22;;;20.30;99.90;;;;;;5073842;28;20122;-79
2022/07/09 09:17:06;;;;;;;5.85;2.70;;;20.40;99.90;;;;;;5073721;28;20025;-81
2022/07/09 09:19:33;;;;;;;7.03;2.63;;;20.40;99.90;;;;;;5072648;28;20040;-80
2022/07/09 09:21:58;;;;;;;4.80;2.72;;;20.50;99.90;;;;;;5074469;28;20106;-81
2022/07/09 09:24:29;;;;;;;5.82;2.65;;;20.60;99.90;;;;;;5073751;28;20463;-80
2022/07/09 09:26:58;;;;;;;5.20;2.35;;;20.70;99.90;;;;;;5073870;28;20021;-80
2022/07/09 09:29:24;;;;;;;5.00;3.60;;;21.00;99.90;;;;;;5073836;28;20470;-80
2022/07/09 09:31:50;;;;;;;7.88;4.88;;;21.20;99.90;;;;;;5073383;28;20039;-79
2022/07/09 09:34:17;;;;;;;5.97;4.45;;;21.30;99.90;;;;;;5072490;28;20094;-80
2022/07/09 09:36:44;;;;;;;7.05;3.95;;;21.40;99.90;;;;;;5073701;28;20145;-82
2022/07/09 09:39:21;;;;;;;6.55;4.30;;;21.40;99.90;;;;;;5072380;28;20024;-79
2022/07/09 09:41:50;;;;;;;6.75;2.33;;;21.50;99.90;;;;;;5072648;28;20044;-81
2022/07/09 09:44:19;;;;;;;6.85;3.25;;;21.80;99.90;;;;;;5073573;28;20422;-81
2022/07/09 09:46:46;;;;;;;8.32;5.15;;;21.90;99.90;;;;;;5073653;28;20107;-81
2022/07/09 09:49:14;;;;;;;4.80;3.10;;;22.10;99.90;;;;;;5072576;28;20110;-79
2022/07/09 09:52:02;;;;;;;6.18;4.55;;;22.40;99.90;;;;;;5073296;28;20032;-79
2022/07/09 09:54:28;;;;;;;6.13;4.57;;;22.80;99.90;;;;;;5073709;28;20020;-78
2022/07/09 09:56:54;;;;;;;7.05;4.22;;;22.90;99.90;;;;;;5074055;28;20074;-78
2022/07/09 09:59:20;;;;;;;7.40;5.18;;;23.00;99.90;;;;;;5073367;28;20101;-79
2022/07/09 10:01:46;;;;;;;7.93;6.30;;;23.30;99.90;;;;;;5073838;28;20064;-80
2022/07/09 10:04:14;;;;;;;7.20;5.22;;;23.50;99.90;;;;;;5072443;28;20029;-78
2022/07/09 10:06:41;;;;;;;5.82;3.30;;;23.20;95.80;;;;;;5072083;28;20031;-77
2022/07/09 10:09:08;;;;;;;6.65;4.40;;;23.10;99.90;;;;;;5073907;28;20032;-77
2022/07/09 10:11:52;;;;;;;6.75;5.47;;;;;;;;;;5073405;28;20068;-88
2022/07/09 10:14:24;;;;;;;6.28;5.68;;;;;;;;;;5072042;28;20028;-77
2022/07/09 10:16:52;;;;;;;6.53;5.85;;;;;;;;;;5076027;28;20467;-77
2022/07/09 10:19:24;;;;;;;8.27;6.43;;;;;;;;;;5077937;28;20021;-78
2022/07/09 10:21:52;;;;;;;7.78;6.68;;;;;;;;;;5075977;28;20160;-78
2022/07/09 10:24:24;;;;;;;10.05;6.82;;;;;;;;;;5077775;28;20020;-78
2022/07/09 10:26:50;;;;;;;8.02;7.30;;;;;;;;;;5077313;28;20024;-78
2022/07/09 10:29:20;;;;;;;9.05;7.57;;;;;;;;;;5077178;28;20036;-78
2022/07/09 10:31:47;;;;;;;10.68;7.05;;;;;;;;;;5077292;28;20540;-78
2022/07/09 10:34:21;;;;;;;8.63;6.57;;;;;;;;;;5075747;28;20020;-78
2022/07/09 10:37:00;;;;;;;8.63;7.75;;;;;;;;;;5077389;28;20024;-75
2022/07/09 10:39:27;;;;;;;7.90;7.13;;;;;;;;;;5077283;28;20100;-79
2022/07/09 10:42:18;;;;;;;7.43;6.82;;;;;;;;;;5076846;28;20054;-78
2022/07/09 10:44:45;;;;;;;9.70;7.35;;;;;;;;;;5076884;28;20092;-78
2022/07/09 10:47:11;;;;;;;8.93;8.23;;;;;;;;;;5077366;28;20031;-80
2022/07/09 10:49:38;;;;;;;8.90;8.18;;;;;;;;;;5076703;28;20078;-81
2022/07/09 10:52:05;;;;;;;8.95;8.18;;;;;;;;;;5076975;28;20096;-80
2022/07/09 10:54:31;;;;;;;8.50;7.78;;;;;;;;;;5076938;28;20023;-80
2022/07/09 10:56:58;;;;;;;8.88;8.07;;;;;;;;;;5076614;28;20112;-80
2022/07/09 10:59:24;;;;;;;9.80;9.10;;;;;;;;;;5076824;28;20031;-79
2022/07/09 11:01:51;;;;;;;8.63;7.72;;;;;;;;;;5076178;28;20081;-79
2022/07/09 11:04:28;;;;;;;9.57;8.77;;;;;;;;;;5076725;28;20109;-79
2022/07/09 11:06:56;;;;;;;8.43;7.72;;;;;;;;;;5075625;28;20016;-80
2022/07/09 11:09:23;;;;;;;10.63;9.73;;;;;;;;;;5076016;28;20063;-78
2022/07/09 11:11:49;;;;;;;9.15;8.18;;;;;;;;;;5075367;28;20370;-80
2022/07/09 11:14:15;;;;;;;8.13;7.32;;;;;;;;;;5075252;28;20460;-77
2022/07/09 11:16:42;;;;;;;7.65;6.72;;;;;;;;;;5076283;28;20456;-78
2022/07/09 11:19:15;;;;;;;7.53;6.93;;;;;;;;;;5076168;28;20387;-79
2022/07/09 11:21:41;;;;;;;6.57;4.88;;;;;;;;;;5076439;28;20029;-77
2022/07/09 11:24:18;;;;;;;7.85;7.22;;;;;;;;;;5075937;28;20052;-79
2022/07/09 11:26:44;;;;;;;8.35;7.13;;;;;;;;;;5075536;28;20050;-78
2022/07/09 11:29:11;;;;;;;8.30;7.53;;;;;;;;;;5075764;28;20475;-79
2022/07/09 11:31:37;;;;;;;8.82;6.65;;;;;;;;;;5075826;28;20111;-77
2022/07/09 11:34:12;;;;;;;10.27;7.60;;;;;;;;;;5076305;28;20019;-78
2022/07/09 11:36:39;;;;;;;9.10;7.90;;;;;;;;;;5075933;28;20025;-81
2022/07/09 11:39:06;;;;;;;9.57;8.45;;;;;;;;;;5075524;28;20025;-80
2022/07/09 11:41:42;;;;;;;8.77;8.02;;;;;;;;;;5076028;28;20028;-80
2022/07/09 11:44:08;;;;;;;9.43;8.52;;;;;;;;;;5074527;28;20024;-82
2022/07/09 11:46:36;;;;;;;11.68;8.55;;;;;;;;;;5075016;28;20028;-80
2022/07/09 11:49:03;;;;;;;9.18;8.48;;;;;;;;;;5076000;28;20013;-80
2022/07/09 11:51:29;;;;;;;8.80;8.20;;;;;;;;;;5074135;28;20033;-80
2022/07/09 11:53:55;;;;;;;9.23;8.43;;;;;;;;;;5074609;28;20024;-81
2022/07/09 11:56:22;;;;;;;9.43;8.63;;;;;;;;;;5074644;28;20033;-81
2022/07/09 11:58:51;;;;;;;8.88;8.07;;;;;;;;;;5074167;28;20025;-81
2022/07/09 12:01:18;;;;;;;13.77;8.63;;;;;;;;;;5074235;28;20081;-81
2022/07/09 12:03:47;;;;;;;8.35;7.55;;;;;;;;;;5075977;28;20027;-80
2022/07/09 12:06:14;;;;;;;8.73;7.93;;;;;;;;;;5074026;28;20455;-80
2022/07/09 12:08:40;;;;;;;8.70;8.00;;;;;;;;;;5075584;28;20083;-81
2022/07/09 12:11:06;;;;;;;8.20;7.60;;;;;;;;;;5075463;28;20045;-81
2022/07/09 12:13:33;;;;;;;7.82;7.07;;;;;;;;;;5075163;28;20066;-79
2022/07/09 12:15:59;;;;;;;7.63;7.03;;;;;;;;;;5075418;28;20013;-81
2022/07/09 12:18:25;;;;;;;10.73;7.60;;;;;;;;;;5075067;28;20408;-79
2022/07/09 12:20:51;;;;;;;8.20;7.40;;;;;;;;;;5075269;28;20028;-79
2022/07/09 12:23:17;;;;;;;7.68;6.93;;;;;;;;;;5073989;28;20028;-79
2022/07/09 12:25:44;;;;;;;8.15;7.32;;;;;;;;;;5074987;28;20059;-78
2022/07/09 12:28:10;;;;;;;8.45;7.20;;;;;;;;;;5074342;28;20036;-78
2022/07/09 12:30:36;;;;;;;8.48;7.82;;;;;;;;;;5074645;28;20490;-77
2022/07/09 12:33:02;;;;;;;8.50;7.90;;;;;;;;;;5074309;28;20023;-77
2022/07/09 12:35:28;;;;;;;9.27;8.57;;;;;;;;;;5074977;28;20086;-78
2022/07/09 12:37:57;;;;;;;8.68;7.75;;;;;;;;;;5073598;28;20463;-77
2022/07/09 12:40:23;;;;;;;8.27;7.65;;;;;;;;;;5074232;28;20048;-79
2022/07/09 12:42:49;;;;;;;9.65;8.85;;;;;;;;;;5074688;28;20024;-79
2022/07/09 12:45:15;;;;;;;12.55;8.90;;;;;;;;;;5074903;28;20026;-78
2022/07/09 12:47:42;;;;;;;8.95;8.15;;;;;;;;;;5073448;28;20082;-77
2022/07/09 12:50:09;;;;;;;9.38;8.70;;;;;;;;;;5073488;28;20025;-78
2022/07/09 12:52:35;;;;;;;8.77;8.07;;;;;;;;;;5074302;28;20379;-78
2022/07/09 12:55:01;;;;;;;8.00;7.40;;;;;;;;;;5074078;28;20094;-78
2022/07/09 12:57:28;;;;;;;8.30;7.60;;;;;;;;;;5074248;28;20387;-78
2022/07/09 12:59:54;;;;;;;8.30;7.60;;;;;;;;;;5074579;28;20025;-78
2022/07/09 13:02:20;;;;;;;8.35;7.70;;;;;;;;;;5073842;28;20025;-77
2022/07/09 13:04:46;;;;;;;8.43;7.82;;;;;;;;;;5074722;28;20025;-77